Time;durP1;ratioP1;P1;durP2;ratioP2;P2;SDS_P1;SDS_P2;PMS_P1;PMS_P2;Temp;Humidity;BMP_temperature;BMP_pressure;BME280_temperature;BME280_humidity;BME280_pressure;Samples;Min_cycle;Max_cycle;Signal;HPM_P1;HPM_P2
2024/04/04 00:01:34;;;;;;;3.10;1.40;;;12.80;79.50;;;;;;5003552;28;20601;-70
2024/04/04 00:03:59;;;;;;;6.30;2.00;;;12.80;79.50;;;;;;5007772;28;20441;-72
2024/04/04 00:06:25;;;;;;;5.70;1.37;;;12.80;79.50;;;;;;5016472;28;20435;-72
2024/04/04 00:08:51;;;;;;;2.20;1.33;;;12.90;79.50;;;;;;5012825;28;20186;-72
2024/04/04 00:11:21;;;;;;;4.27;1.53;;;12.90;79.50;;;;;;5011216;28;21022;-73
2024/04/04 00:13:47;;;;;;;3.53;1.40;;;12.90;79.30;;;;;;5024699;28;20417;-72
2024/04/04 00:16:12;;;;;;;3.30;1.37;;;12.90;79.20;;;;;;5014309;28;20444;-73
2024/04/04 00:18:38;;;;;;;3.10;1.47;;;12.90;79.30;;;;;;5010368;28;20554;-72
2024/04/04 00:21:04;;;;;;;11.83;1.70;;;12.80;79.50;;;;;;5003586;28;20882;-72
2024/04/04 00:23:30;;;;;;;3.40;1.47;;;12.90;79.50;;;;;;5009814;28;20595;-73
2024/04/04 00:25:55;;;;;;;2.20;1.40;;;12.90;79.50;;;;;;5005908;28;20585;-73
2024/04/04 00:28:21;;;;;;;3.10;1.50;;;12.90;79.60;;;;;;5003370;28;20190;-73
2024/04/04 00:30:46;;;;;;;2.43;1.30;;;12.90;79.50;;;;;;5000952;28;20197;-72
2024/04/04 00:33:12;;;;;;;2.20;1.37;;;12.80;79.30;;;;;;5005922;28;20329;-74
2024/04/04 00:35:38;;;;;;;6.13;1.40;;;12.80;79.50;;;;;;5008542;28;20186;-72
2024/04/04 00:38:03;;;;;;;2.57;1.57;;;12.70;79.60;;;;;;5020258;28;20237;-74
2024/04/04 00:40:38;;;;;;;4.10;1.30;;;12.70;79.70;;;;;;5010666;28;20417;-72
2024/04/04 00:43:04;;;;;;;3.20;1.40;;;12.70;79.70;;;;;;5001329;28;20190;-73
2024/04/04 00:45:31;;;;;;;2.70;1.50;;;12.60;79.70;;;;;;5006473;28;20429;-73
2024/04/04 00:47:58;;;;;;;2.47;1.50;;;12.60;79.70;;;;;;5013180;28;20421;-72
2024/04/04 00:50:24;;;;;;;4.43;1.60;;;12.60;79.90;;;;;;5012703;28;20973;-73
2024/04/04 00:52:50;;;;;;;4.27;1.73;;;12.60;79.90;;;;;;5004722;28;20556;-73
2024/04/04 00:55:16;;;;;;;3.40;1.37;;;12.60;79.90;;;;;;5007076;28;20205;-72
2024/04/04 00:57:43;;;;;;;3.13;1.50;;;12.60;79.90;;;;;;5012651;28;20456;-72
2024/04/04 01:00:10;;;;;;;2.13;1.50;;;12.50;79.90;;;;;;5012107;28;20514;-73
2024/04/04 01:02:36;;;;;;;5.63;1.60;;;12.50;79.90;;;;;;5008642;28;20476;-74
2024/04/04 01:05:01;;;;;;;3.97;1.70;;;12.50;79.90;;;;;;5020688;28;20429;-73
2024/04/04 01:07:28;;;;;;;3.30;1.60;;;12.50;79.90;;;;;;5010513;28;20653;-74
2024/04/04 01:09:53;;;;;;;2.63;1.30;;;12.40;80.00;;;;;;5008828;28;20688;-72
2024/04/04 01:12:19;;;;;;;1.97;1.30;;;12.40;80.00;;;;;;5005708;28;20452;-72
2024/04/04 01:14:45;;;;;;;4.33;1.50;;;12.40;80.00;;;;;;5004083;28;20770;-73
2024/04/04 01:17:10;;;;;;;2.63;1.40;;;12.40;80.00;;;;;;5008725;28;20213;-74
2024/04/04 01:19:36;;;;;;;6.13;1.83;;;12.40;80.00;;;;;;5007898;28;20189;-73
2024/04/04 01:22:01;;;;;;;4.17;1.23;;;12.40;80.00;;;;;;5002838;28;20555;-72
2024/04/04 01:24:27;;;;;;;4.17;1.30;;;12.50;79.70;;;;;;5000653;28;20197;-72
2024/04/04 01:26:52;;;;;;;4.23;1.50;;;12.30;79.60;;;;;;5008414;28;20197;-72
2024/04/04 01:29:18;;;;;;;3.60;1.30;;;12.30;79.90;;;;;;5005445;28;20181;-74
2024/04/04 01:31:44;;;;;;;8.07;1.60;;;12.30;79.90;;;;;;5005527;28;20293;-74
2024/04/04 01:34:09;;;;;;;3.60;1.50;;;12.30;79.90;;;;;;5011425;28;20615;-73
2024/04/04 01:36:35;;;;;;;4.20;1.50;;;12.30;79.60;;;;;;5015323;28;20276;-73
2024/04/04 01:39:01;;;;;;;3.17;1.10;;;12.30;79.50;;;;;;5019339;28;20210;-75
2024/04/04 01:41:26;;;;;;;4.47;1.27;;;12.40;78.90;;;;;;5007617;28;20209;-74
2024/04/04 01:43:52;;;;;;;2.17;1.10;;;12.50;78.40;;;;;;5006843;28;20421;-74
2024/04/04 01:46:19;;;;;;;7.70;1.40;;;12.50;78.40;;;;;;5013757;28;20282;-74
2024/04/04 01:48:46;;;;;;;2.20;1.10;;;12.60;78.10;;;;;;5010054;28;20271;-73
2024/04/04 01:51:11;;;;;;;1.83;1.10;;;12.60;77.80;;;;;;5007153;28;20493;-73
2024/04/04 01:53:39;;;;;;;3.30;1.20;;;12.60;77.80;;;;;;5007502;28;20475;-73
2024/04/04 01:56:04;;;;;;;3.20;1.47;;;12.60;78.00;;;;;;5014320;28;20193;-72
2024/04/04 01:58:30;;;;;;;1.53;1.07;;;12.60;78.00;;;;;;5011452;28;20456;-71
2024/04/04 02:00:55;;;;;;;5.50;1.20;;;12.60;78.10;;;;;;5007399;28;20607;-72
2024/04/04 02:03:21;;;;;;;3.07;1.20;;;12.60;78.30;;;;;;5009456;28;20290;-73
2024/04/04 02:05:46;;;;;;;1.83;1.00;;;12.50;78.70;;;;;;5008099;28;20189;-74
2024/04/04 02:08:12;;;;;;;3.53;1.73;;;12.50;79.00;;;;;;5018029;28;20198;-72
2024/04/04 02:10:38;;;;;;;2.13;1.40;;;12.60;79.20;;;;;;5008727;28;20244;-73
2024/04/04 02:13:04;;;;;;;5.70;1.20;;;12.60;79.20;;;;;;5002871;28;20994;-74
2024/04/04 02:15:29;;;;;;;1.70;1.10;;;12.60;79.50;;;;;;5011455;28;20186;-73
2024/04/04 02:17:55;;;;;;;3.30;1.40;;;12.60;79.50;;;;;;5012750;28;20291;-73
2024/04/04 02:20:24;;;;;;;4.00;1.37;;;12.60;79.70;;;;;;5008252;28;20184;-73
2024/04/04 02:22:49;;;;;;;2.97;1.10;;;12.60;79.70;;;;;;5005342;28;20230;-74
2024/04/04 02:25:15;;;;;;;3.00;1.10;;;12.60;79.70;;;;;;5010950;28;20413;-75
2024/04/04 02:27:41;;;;;;;5.13;1.73;;;12.70;79.60;;;;;;5009057;28;20189;-73
2024/04/04 02:30:07;;;;;;;2.33;1.20;;;12.60;79.70;;;;;;5005983;28;20226;-74
2024/04/04 02:32:33;;;;;;;5.97;1.40;;;12.60;79.60;;;;;;5006938;28;20224;-72
2024/04/04 02:34:58;;;;;;;8.00;1.20;;;12.60;79.50;;;;;;5006927;28;20432;-73
2024/04/04 02:37:25;;;;;;;3.00;1.63;;;12.60;79.90;;;;;;5010911;28;20569;-72
2024/04/04 02:39:50;;;;;;;6.40;1.50;;;12.60;79.90;;;;;;5011800;28;20941;-73
2024/04/04 02:42:16;;;;;;;6.37;1.80;;;12.60;79.90;;;;;;5005577;28;20460;-72
2024/04/04 02:44:42;;;;;;;2.80;1.20;;;12.50;79.90;;;;;;4998144;28;20198;-74
2024/04/04 02:47:07;;;;;;;3.40;1.63;;;12.50;79.90;;;;;;5011113;28;20186;-73
2024/04/04 02:49:33;;;;;;;3.10;1.30;;;12.60;79.70;;;;;;5022360;28;20190;-73
2024/04/04 02:51:59;;;;;;;4.33;1.43;;;12.60;79.50;;;;;;5002011;28;20284;-73
2024/04/04 02:54:24;;;;;;;3.83;1.00;;;12.60;79.70;;;;;;5007966;28;20734;-74
2024/04/04 02:56:50;;;;;;;2.70;1.20;;;12.60;79.70;;;;;;5008169;28;20186;-72
2024/04/04 02:59:15;;;;;;;2.90;1.20;;;12.60;79.70;;;;;;5006286;28;20674;-73
2024/04/04 03:01:41;;;;;;;3.10;1.10;;;12.60;79.90;;;;;;5004064;28;20209;-72
2024/04/04 03:04:07;;;;;;;5.30;1.40;;;12.60;80.00;;;;;;5006275;28;20202;-74
2024/04/04 03:06:34;;;;;;;3.67;1.20;;;12.60;80.20;;;;;;5011500;28;20610;-72
2024/04/04 03:09:03;;;;;;;2.10;1.20;;;12.60;80.20;;;;;;5009117;28;20421;-73
2024/04/04 03:11:29;;;;;;;3.30;1.20;;;12.60;80.00;;;;;;5004366;28;20456;-73
2024/04/04 03:13:55;;;;;;;1.50;1.10;;;12.60;80.20;;;;;;5005303;28;20440;-71
2024/04/04 03:16:21;;;;;;;8.43;1.33;;;12.50;80.00;;;;;;5011627;28;20425;-72
2024/04/04 03:18:46;;;;;;;6.50;1.60;;;12.50;80.20;;;;;;5009918;28;20237;-71
2024/04/04 03:21:12;;;;;;;3.20;1.10;;;12.50;80.30;;;;;;5011213;28;20473;-73
2024/04/04 03:23:37;;;;;;;2.10;1.17;;;12.50;80.30;;;;;;5010696;28;20193;-72
2024/04/04 03:26:03;;;;;;;7.17;1.10;;;12.40;80.30;;;;;;5013516;28;20213;-73
2024/04/04 03:28:28;;;;;;;3.43;1.27;;;12.40;80.60;;;;;;5014703;28;20564;-72
2024/04/04 03:30:54;;;;;;;1.63;1.20;;;12.40;80.50;;;;;;5010364;28;20194;-73
2024/04/04 03:33:19;;;;;;;4.10;1.07;;;12.40;80.50;;;;;;5011509;28;20182;-70
2024/04/04 03:35:45;;;;;;;1.97;0.90;;;12.40;80.50;;;;;;5006293;28;20541;-71
2024/04/04 03:38:11;;;;;;;2.97;1.03;;;12.40;80.30;;;;;;5013201;28;20260;-71
2024/04/04 03:40:36;;;;;;;3.30;1.17;;;12.30;80.50;;;;;;5007074;28;20875;-71
2024/04/04 03:43:02;;;;;;;3.97;1.13;;;12.30;80.60;;;;;;5014252;28;20205;-72
2024/04/04 03:45:31;;;;;;;2.03;1.03;;;12.30;80.80;;;;;;5016063;28;20189;-69
2024/04/04 03:47:59;;;;;;;2.80;1.20;;;12.30;80.80;;;;;;5013645;28;20455;-72
2024/04/04 03:50:26;;;;;;;2.77;1.30;;;12.20;80.80;;;;;;5009614;28;20410;-71
2024/04/04 03:52:52;;;;;;;3.30;1.20;;;12.20;80.80;;;;;;5009279;28;20520;-71
2024/04/04 03:55:18;;;;;;;7.43;1.33;;;12.20;80.80;;;;;;5013634;28;20502;-73
2024/04/04 03:57:43;;;;;;;4.23;1.10;;;12.20;80.80;;;;;;5014713;28;20239;-72
2024/04/04 04:00:10;;;;;;;5.10;1.13;;;12.20;80.90;;;;;;5018237;28;20236;-73
2024/04/04 04:02:36;;;;;;;4.80;1.70;;;12.10;80.90;;;;;;5015143;28;20221;-71
2024/04/04 04:05:03;;;;;;;2.30;1.40;;;12.10;81.10;;;;;;5026600;28;20500;-71
2024/04/04 04:07:29;;;;;;;2.63;1.20;;;12.10;81.20;;;;;;5026693;28;20206;-71
2024/04/04 04:09:54;;;;;;;6.43;1.40;;;12.10;81.20;;;;;;5013529;28;20432;-73
2024/04/04 04:12:20;;;;;;;4.70;1.40;;;12.10;81.20;;;;;;5005830;28;20759;-71
2024/04/04 04:14:45;;;;;;;2.50;1.17;;;12.10;81.20;;;;;;5008302;28;20277;-72
2024/04/04 04:17:11;;;;;;;2.67;1.83;;;12.10;81.50;;;;;;5004556;28;20210;-73
2024/04/04 04:19:37;;;;;;;5.43;1.33;;;12.10;81.50;;;;;;5008240;28;20663;-71
2024/04/04 04:22:04;;;;;;;2.03;1.10;;;12.10;81.50;;;;;;5001549;28;20507;-72
2024/04/04 04:24:29;;;;;;;8.53;1.40;;;12.10;81.20;;;;;;5011469;28;20487;-73
2024/04/04 04:26:55;;;;;;;2.00;1.10;;;12.20;81.10;;;;;;5009652;28;20416;-72
2024/04/04 04:29:21;;;;;;;2.33;1.20;;;12.20;81.10;;;;;;5004691;28;20190;-72
2024/04/04 04:31:46;;;;;;;2.10;1.37;;;12.10;81.10;;;;;;5006982;28;20698;-71
2024/04/04 04:34:12;;;;;;;5.90;1.60;;;12.10;81.20;;;;;;5010393;28;20182;-73
2024/04/04 04:36:54;;;;;;;1.53;1.10;;;12.10;81.20;;;;;;5008996;28;20239;-73
2024/04/04 04:39:19;;;;;;;3.57;1.43;;;12.00;81.50;;;;;;5006872;28;20185;-74
2024/04/04 04:41:45;;;;;;;2.53;1.30;;;12.00;81.50;;;;;;5003680;28;20448;-74
2024/04/04 04:44:11;;;;;;;1.97;1.47;;;12.00;81.70;;;;;;5010356;28;20281;-72
2024/04/04 04:46:36;;;;;;;2.20;1.43;;;12.00;81.80;;;;;;5006947;28;20643;-73
2024/04/04 04:49:02;;;;;;;4.53;1.50;;;12.00;81.90;;;;;;5008071;28;20196;-72
2024/04/04 04:51:27;;;;;;;2.17;1.00;;;11.80;82.10;;;;;;5004539;28;20205;-72
2024/04/04 04:53:54;;;;;;;2.10;1.20;;;11.90;82.20;;;;;;5007122;28;20190;-73
2024/04/04 04:56:20;;;;;;;2.30;1.10;;;11.80;82.20;;;;;;5008627;28;20213;-73
2024/04/04 04:58:45;;;;;;;4.03;1.30;;;11.80;82.20;;;;;;5014197;28;20886;-73
2024/04/04 05:01:11;;;;;;;2.67;1.30;;;11.80;82.40;;;;;;5016452;28;20252;-73
2024/04/04 05:03:37;;;;;;;1.73;1.20;;;11.80;82.50;;;;;;5021168;28;20193;-74
2024/04/04 05:06:04;;;;;;;4.57;1.40;;;11.80;82.20;;;;;;5012803;28;20197;-72
2024/04/04 05:08:30;;;;;;;4.87;1.20;;;11.80;82.20;;;;;;5012800;28;20245;-73
2024/04/04 05:10:55;;;;;;;3.10;1.10;;;11.90;82.10;;;;;;5013460;28;20424;-71
2024/04/04 05:13:21;;;;;;;3.73;1.20;;;11.90;81.90;;;;;;5014223;28;20186;-72
2024/04/04 05:15:48;;;;;;;2.10;1.20;;;11.90;81.90;;;;;;5012815;28;20205;-72
2024/04/04 05:18:14;;;;;;;2.60;1.40;;;11.90;81.90;;;;;;5006816;28;20206;-72
2024/04/04 05:20:41;;;;;;;5.60;1.70;;;11.90;81.90;;;;;;5016255;28;20428;-74
2024/04/04 05:23:06;;;;;;;3.83;1.40;;;12.00;81.80;;;;;;5011261;28;20213;-75
2024/04/04 05:25:32;;;;;;;7.63;2.17;;;12.00;81.70;;;;;;5026043;28;21012;-75
2024/04/04 05:27:57;;;;;;;2.27;1.30;;;12.10;81.10;;;;;;5028898;28;20185;-73
2024/04/04 05:30:23;;;;;;;2.27;1.20;;;12.10;81.10;;;;;;5028418;28;20248;-73
2024/04/04 05:32:49;;;;;;;3.10;1.30;;;12.10;81.10;;;;;;5023851;28;20224;-74
2024/04/04 05:35:15;;;;;;;2.70;1.40;;;12.10;80.90;;;;;;5021626;28;20251;-74
2024/04/04 05:37:41;;;;;;;5.37;1.60;;;12.10;80.90;;;;;;5010751;28;20479;-75
2024/04/04 05:40:08;;;;;;;4.13;1.50;;;12.10;80.90;;;;;;5014066;28;20204;-74
2024/04/04 05:42:34;;;;;;;3.77;1.60;;;12.10;80.90;;;;;;5007634;28;20225;-75
2024/04/04 05:44:59;;;;;;;3.63;1.20;;;12.10;80.80;;;;;;5012158;28;20444;-76
2024/04/04 05:47:26;;;;;;;4.43;1.53;;;12.10;80.60;;;;;;5033049;28;20193;-74
2024/04/04 05:49:54;;;;;;;3.70;1.30;;;12.20;80.30;;;;;;5023209;28;20209;-74
2024/04/04 05:52:19;;;;;;;2.73;1.10;;;12.20;80.30;;;;;;5012816;28;20465;-73
2024/04/04 05:54:47;;;;;;;6.73;2.43;;;12.20;80.30;;;;;;5008785;28;20445;-72
2024/04/04 05:57:16;;;;;;;2.90;1.40;;;12.10;80.50;;;;;;5013191;28;20476;-73
2024/04/04 05:59:42;;;;;;;4.47;1.90;;;12.10;80.60;;;;;;5009786;28;20555;-73
2024/04/04 06:02:09;;;;;;;3.80;1.70;;;12.20;80.60;;;;;;5006388;28;20468;-74
2024/04/04 06:04:35;;;;;;;6.87;1.70;;;12.20;80.60;;;;;;5009174;28;20185;-73
2024/04/04 06:07:01;;;;;;;4.03;1.50;;;12.30;80.00;;;;;;5010577;28;20444;-71
2024/04/04 06:09:26;;;;;;;4.77;1.70;;;12.40;79.60;;;;;;5018019;28;20417;-73
2024/04/04 06:11:52;;;;;;;6.73;1.70;;;12.40;79.20;;;;;;5011473;28;20259;-73
2024/04/04 06:14:18;;;;;;;6.60;1.53;;;12.60;78.90;;;;;;5012109;28;20200;-74
2024/04/04 06:16:45;;;;;;;5.40;1.30;;;12.60;78.60;;;;;;5009243;28;20275;-73
2024/04/04 06:19:10;;;;;;;9.63;1.80;;;12.60;78.40;;;;;;5008669;28;20221;-73
2024/04/04 06:21:36;;;;;;;8.77;1.40;;;12.80;78.10;;;;;;5001614;28;20469;-73
2024/04/04 06:24:01;;;;;;;4.80;1.70;;;12.90;77.40;;;;;;5007723;28;20174;-73
2024/04/04 06:26:28;;;;;;;9.73;1.70;;;12.90;76.80;;;;;;5011842;28;20181;-74
2024/04/04 06:28:54;;;;;;;4.27;1.40;;;13.00;76.80;;;;;;5005418;28;20649;-71
2024/04/04 06:31:20;;;;;;;6.50;1.73;;;13.00;76.40;;;;;;5003007;28;20527;-72
2024/04/04 06:33:46;;;;;;;3.53;1.30;;;13.10;76.10;;;;;;5013255;28;20499;-74
2024/04/04 06:36:12;;;;;;;11.37;2.57;;;13.10;75.80;;;;;;5014191;28;20451;-72
2024/04/04 06:38:37;;;;;;;16.23;2.97;;;13.20;75.80;;;;;;5016064;28;20746;-73
2024/04/04 06:41:03;;;;;;;12.03;3.03;;;13.30;75.50;;;;;;5008715;28;20206;-73
2024/04/04 06:43:29;;;;;;;6.00;1.50;;;13.30;75.40;;;;;;5014830;28;20300;-72
2024/04/04 06:45:54;;;;;;;6.80;1.67;;;13.30;75.20;;;;;;5010893;28;20198;-72
2024/04/04 06:48:20;;;;;;;8.23;1.50;;;13.30;75.10;;;;;;5016212;28;20204;-71
2024/04/04 06:50:46;;;;;;;7.23;1.50;;;13.40;74.60;;;;;;5008373;28;20256;-71
2024/04/04 06:53:12;;;;;;;5.20;2.20;;;13.40;74.30;;;;;;4998465;28;20193;-74
2024/04/04 06:55:37;;;;;;;5.93;2.30;;;13.50;74.00;;;;;;5005881;28;20186;-74
2024/04/04 06:58:04;;;;;;;8.70;1.70;;;13.50;73.70;;;;;;5010382;28;20202;-73
2024/04/04 07:00:30;;;;;;;5.90;2.13;;;13.60;73.70;;;;;;5012770;28;20178;-71
2024/04/04 07:02:55;;;;;;;7.20;1.87;;;13.60;73.50;;;;;;5008381;28;20460;-72
2024/04/04 07:05:22;;;;;;;2.97;1.33;;;13.70;73.00;;;;;;5012989;28;20990;-74
2024/04/04 07:07:47;;;;;;;11.83;2.30;;;13.70;72.90;;;;;;5011868;28;20593;-74
2024/04/04 07:10:13;;;;;;;7.97;1.30;;;13.80;72.40;;;;;;5012875;28;20449;-70
2024/04/04 07:12:39;;;;;;;10.17;1.93;;;14.00;72.00;;;;;;5017831;28;20679;-73
2024/04/04 07:15:05;;;;;;;4.00;1.50;;;14.10;71.70;;;;;;5013890;28;20217;-73
2024/04/04 07:17:33;;;;;;;5.57;1.70;;;14.30;70.50;;;;;;5007318;28;20225;-71
2024/04/04 07:19:59;;;;;;;10.10;1.23;;;14.40;70.20;;;;;;5009488;28;20430;-72
2024/04/04 07:22:26;;;;;;;5.93;1.50;;;14.50;69.90;;;;;;5006244;28;20576;-73
2024/04/04 07:24:52;;;;;;;5.60;1.60;;;14.60;69.90;;;;;;5010753;28;20438;-72
2024/04/04 07:27:17;;;;;;;5.00;2.00;;;14.60;69.50;;;;;;5011295;28;20423;-74
2024/04/04 07:29:44;;;;;;;10.10;2.40;;;14.70;68.90;;;;;;5008910;28;20444;-74
2024/04/04 07:32:10;;;;;;;4.63;1.30;;;14.80;68.60;;;;;;5009857;28;21000;-73
2024/04/04 07:34:36;;;;;;;6.63;1.67;;;14.70;68.50;;;;;;5012643;28;20541;-74
2024/04/04 07:37:03;;;;;;;4.77;1.77;;;14.80;68.20;;;;;;5008541;28;20965;-72
2024/04/04 07:39:33;;;;;;;6.43;1.30;;;14.70;68.30;;;;;;5009353;28;20444;-73
2024/04/04 07:41:59;;;;;;;9.10;2.13;;;14.70;68.50;;;;;;5001492;28;20472;-73
2024/04/04 07:44:25;;;;;;;3.43;1.90;;;14.60;68.90;;;;;;5010985;28;20803;-73
2024/04/04 07:46:52;;;;;;;6.93;2.20;;;14.60;69.80;;;;;;5013277;28;20414;-74
2024/04/04 07:49:18;;;;;;;13.70;1.90;;;14.30;71.70;;;;;;5014348;28;20197;-73
2024/04/04 07:51:44;;;;;;;4.70;1.53;;;14.10;73.00;;;;;;5008538;28;20485;-71
2024/04/04 07:54:10;;;;;;;7.40;2.97;;;14.00;73.50;;;;;;5019392;28;20434;-71
2024/04/04 07:56:36;;;;;;;9.13;2.20;;;14.10;73.00;;;;;;5014820;28;20527;-72
2024/04/04 07:59:02;;;;;;;6.47;1.80;;;14.10;72.60;;;;;;5015597;28;20627;-73
2024/04/04 08:01:27;;;;;;;5.63;1.60;;;14.20;72.40;;;;;;5013835;28;21049;-71
2024/04/04 08:03:53;;;;;;;8.40;1.97;;;14.20;72.10;;;;;;5011121;28;20463;-73
2024/04/04 08:06:19;;;;;;;14.30;1.80;;;14.30;72.10;;;;;;5005449;28;20605;-74
2024/04/04 08:08:46;;;;;;;8.83;2.17;;;14.40;71.60;;;;;;5005254;28;20428;-72
2024/04/04 08:11:14;;;;;;;8.83;2.30;;;14.40;71.30;;;;;;5008606;28;20461;-74
2024/04/04 08:13:40;;;;;;;4.67;1.40;;;14.50;71.10;;;;;;5009020;28;20438;-71
2024/04/04 08:16:08;;;;;;;5.03;1.37;;;14.50;70.70;;;;;;5007240;28;20463;-74
2024/04/04 08:18:34;;;;;;;7.83;1.67;;;14.50;71.00;;;;;;5005538;28;20717;-73
2024/04/04 08:21:00;;;;;;;7.80;1.97;;;14.40;71.30;;;;;;4990067;28;20458;-73
2024/04/04 08:23:28;;;;;;;6.50;2.07;;;14.40;71.40;;;;;;5016280;28;20504;-73
2024/04/04 08:25:55;;;;;;;5.60;1.53;;;14.40;71.60;;;;;;5024270;28;20489;-72
2024/04/04 08:28:20;;;;;;;4.37;1.50;;;14.40;71.70;;;;;;5024795;28;20447;-72
2024/04/04 08:30:55;;;;;;;5.13;2.10;;;14.30;71.60;;;;;;5012772;28;20460;-73
2024/04/04 08:33:21;;;;;;;13.10;2.50;;;14.20;72.00;;;;;;5009990;28;20185;-73
2024/04/04 08:35:48;;;;;;;5.77;1.90;;;14.20;72.00;;;;;;5009483;28;20838;-73
2024/04/04 08:38:13;;;;;;;9.67;2.20;;;14.30;72.00;;;;;;5010919;28;20217;-72
2024/04/04 08:40:39;;;;;;;7.77;1.70;;;14.30;71.60;;;;;;5008805;28;20429;-73
2024/04/04 08:43:06;;;;;;;5.50;2.00;;;14.30;71.70;;;;;;5003723;28;20182;-75
2024/04/04 08:45:34;;;;;;;4.20;1.70;;;14.30;71.80;;;;;;5013135;28;20446;-75
2024/04/04 08:48:01;;;;;;;7.93;2.10;;;14.40;71.60;;;;;;5017443;28;20494;-74
2024/04/04 08:50:29;;;;;;;5.70;1.90;;;14.40;71.70;;;;;;5017664;28;20421;-74
2024/04/04 08:52:54;;;;;;;6.00;2.03;;;14.40;71.80;;;;;;5016007;28;20459;-73
2024/04/04 08:55:20;;;;;;;6.40;2.20;;;14.40;72.10;;;;;;5015912;28;20465;-75
2024/04/04 08:57:46;;;;;;;6.93;2.00;;;14.40;72.10;;;;;;5017738;28;20590;-73
2024/04/04 09:00:12;;;;;;;7.47;2.37;;;14.40;72.60;;;;;;5016274;28;20206;-73
2024/04/04 09:02:40;;;;;;;5.73;3.23;;;14.40;72.60;;;;;;5009185;28;20477;-73
2024/04/04 09:05:07;;;;;;;5.27;2.10;;;14.50;72.70;;;;;;5013407;28;20188;-73
2024/04/04 09:07:36;;;;;;;7.30;2.60;;;14.60;72.10;;;;;;5007035;28;20490;-73
2024/04/04 09:10:09;;;;;;;8.40;2.47;;;14.60;72.60;;;;;;5004554;28;20460;-72
2024/04/04 09:12:35;;;;;;;6.43;2.00;;;14.60;72.40;;;;;;5009557;28;20452;-74
2024/04/04 09:15:01;;;;;;;8.50;2.07;;;14.60;72.40;;;;;;5008957;28;20953;-74
2024/04/04 09:17:27;;;;;;;7.07;2.13;;;14.60;72.30;;;;;;5014177;28;20288;-72
2024/04/04 09:19:56;;;;;;;5.13;2.13;;;14.60;72.30;;;;;;5006217;28;20462;-73
2024/04/04 09:22:27;;;;;;;10.03;2.00;;;14.80;71.70;;;;;;5000274;28;20564;-73
2024/04/04 09:24:59;;;;;;;4.57;1.80;;;14.70;70.80;;;;;;5014309;28;20434;-72
2024/04/04 09:27:25;;;;;;;3.73;1.50;;;14.80;71.10;;;;;;5004194;28;20423;-75
2024/04/04 09:29:52;;;;;;;8.87;2.43;;;14.90;70.70;;;;;;5012163;28;20430;-75
2024/04/04 09:32:19;;;;;;;4.00;1.80;;;15.00;70.20;;;;;;5006510;28;20449;-71
2024/04/04 09:34:46;;;;;;;3.80;1.70;;;15.10;70.50;;;;;;5012413;28;20453;-72
2024/04/04 09:37:16;;;;;;;9.97;1.80;;;15.10;69.90;;;;;;5007839;28;20513;-74
2024/04/04 09:39:42;;;;;;;8.57;1.93;;;15.10;70.50;;;;;;5004711;28;20944;-74
2024/04/04 09:42:09;;;;;;;4.87;1.73;;;15.00;71.00;;;;;;5006093;28;20472;-73
2024/04/04 09:44:35;;;;;;;5.40;2.00;;;14.90;71.40;;;;;;4998017;28;20196;-73
2024/04/04 09:47:06;;;;;;;10.20;2.27;;;14.80;71.40;;;;;;5005107;28;20423;-71
2024/04/04 09:49:32;;;;;;;6.13;1.93;;;14.90;71.60;;;;;;5007679;28;20431;-73
2024/04/04 09:52:02;;;;;;;4.60;1.80;;;14.90;71.40;;;;;;4999816;28;20466;-73
2024/04/04 09:54:29;;;;;;;11.67;1.93;;;15.00;70.50;;;;;;5008215;28;20506;-72
2024/04/04 09:56:56;;;;;;;9.63;2.40;;;14.90;71.00;;;;;;5008946;28;20481;-73
2024/04/04 09:59:29;;;;;;;5.00;1.77;;;15.00;71.70;;;;;;5015701;28;20871;-73
2024/04/04 10:02:05;;;;;;;6.60;1.97;;;15.00;71.60;;;;;;5010634;28;20464;-74
2024/04/04 10:04:35;;;;;;;5.83;1.93;;;14.90;72.00;;;;;;5012461;28;20436;-72
2024/04/04 10:07:02;;;;;;;7.07;2.00;;;14.80;72.90;;;;;;5007681;28;20453;-74
2024/04/04 10:09:39;;;;;;;2.20;1.03;;;14.50;74.50;;;;;;5019808;28;20447;-73
2024/04/04 10:12:10;;;;;;;3.67;2.00;;;14.40;74.80;;;;;;5002902;28;20468;-72
2024/04/04 10:14:36;;;;;;;6.27;1.37;;;14.40;75.70;;;;;;5013437;28;20440;-72
2024/04/04 10:17:05;;;;;;;3.50;1.60;;;14.20;75.80;;;;;;5013002;28;20491;-74
2024/04/04 10:19:34;;;;;;;6.90;1.70;;;14.10;76.70;;;;;;5012459;28;20483;-73
2024/04/04 10:22:00;;;;;;;9.13;1.60;;;14.00;78.00;;;;;;5009829;28;20477;-72
2024/04/04 10:24:30;;;;;;;8.63;1.77;;;13.90;78.40;;;;;;5019385;28;20489;-73
2024/04/04 10:27:04;;;;;;;5.33;2.20;;;13.90;78.40;;;;;;5016816;28;20523;-72
2024/04/04 10:29:30;;;;;;;4.63;2.63;;;13.90;78.70;;;;;;5017220;28;20425;-72
2024/04/04 10:31:56;;;;;;;7.40;2.03;;;14.00;78.40;;;;;;5007428;28;20465;-74
2024/04/04 10:34:22;;;;;;;6.30;1.90;;;14.00;78.40;;;;;;5009579;28;20425;-72
2024/04/04 10:36:48;;;;;;;5.67;2.20;;;14.00;78.60;;;;;;5013116;28;20434;-73
2024/04/04 10:39:16;;;;;;;8.40;2.47;;;14.00;79.20;;;;;;5008046;28;20211;-73
2024/04/04 10:41:44;;;;;;;5.00;1.73;;;14.10;79.60;;;;;;5012932;28;20206;-70
2024/04/04 10:44:14;;;;;;;8.77;1.90;;;14.10;79.70;;;;;;5023881;28;20450;-72
2024/04/04 10:46:42;;;;;;;4.67;1.80;;;14.20;78.90;;;;;;5024069;28;20436;-73
2024/04/04 10:49:08;;;;;;;3.00;1.60;;;14.20;78.60;;;;;;5022448;28;20428;-73
2024/04/04 10:51:36;;;;;;;8.00;2.40;;;14.30;78.70;;;;;;5016501;28;20453;-73
2024/04/04 10:54:03;;;;;;;3.50;1.87;;;14.40;78.70;;;;;;5009037;28;20185;-74
2024/04/04 10:56:31;;;;;;;7.93;2.70;;;14.50;77.70;;;;;;5008124;28;20434;-70
2024/04/04 10:58:58;;;;;;;4.40;1.77;;;14.60;77.70;;;;;;5005473;28;20477;-72
2024/04/04 11:01:23;;;;;;;4.10;1.93;;;14.50;77.30;;;;;;5007627;28;20476;-75
2024/04/04 11:03:56;;;;;;;4.53;1.70;;;14.50;78.00;;;;;;5006640;28;21153;-73
2024/04/04 11:06:27;;;;;;;2.23;1.43;;;14.40;77.70;;;;;;5006651;28;20605;-73
2024/04/04 11:08:54;;;;;;;5.47;2.23;;;14.40;77.60;;;;;;5009283;28;20434;-73
2024/04/04 11:11:21;;;;;;;8.87;1.87;;;14.50;77.40;;;;;;5002927;28;20521;-72
2024/04/04 11:13:48;;;;;;;4.57;1.80;;;14.50;77.80;;;;;;5005064;28;20493;-74
2024/04/04 11:16:14;;;;;;;4.00;1.73;;;14.50;77.10;;;;;;5006188;28;20458;-72
2024/04/04 11:18:40;;;;;;;5.87;1.93;;;14.60;77.60;;;;;;5003094;28;21061;-71
2024/04/04 11:21:08;;;;;;;5.40;1.67;;;14.60;76.70;;;;;;5002845;28;20237;-73
2024/04/04 11:23:34;;;;;;;8.67;2.00;;;14.60;75.40;;;;;;5010781;28;20202;-73
2024/04/04 11:26:00;;;;;;;5.10;2.60;;;14.60;76.10;;;;;;5008343;28;20977;-72
2024/04/04 11:28:26;;;;;;;4.83;1.27;;;14.60;75.90;;;;;;5004694;28;20508;-73
2024/04/04 11:30:51;;;;;;;5.77;1.67;;;14.80;75.10;;;;;;5004403;28;20237;-72
2024/04/04 11:33:17;;;;;;;8.43;1.60;;;14.90;75.50;;;;;;5009895;28;20730;-73
2024/04/04 11:35:44;;;;;;;5.60;2.40;;;15.00;74.80;;;;;;5016154;28;20190;-71
2024/04/04 11:38:10;;;;;;;3.83;1.90;;;14.90;75.20;;;;;;5016543;28;20528;-73
2024/04/04 11:40:36;;;;;;;4.47;1.87;;;14.90;75.20;;;;;;5009433;28;20528;-73
2024/04/04 11:43:01;;;;;;;5.63;2.20;;;14.80;76.10;;;;;;5003918;28;20207;-73
2024/04/04 11:45:27;;;;;;;5.20;1.87;;;14.70;75.70;;;;;;5010481;28;20187;-73
2024/04/04 11:47:52;;;;;;;3.80;1.67;;;14.60;75.10;;;;;;5009446;28;20201;-72
2024/04/04 11:50:18;;;;;;;7.70;1.90;;;14.60;75.40;;;;;;5005413;28;20659;-72
2024/04/04 11:52:44;;;;;;;6.10;2.33;;;14.60;75.10;;;;;;4996881;28;20777;-73
2024/04/04 11:55:10;;;;;;;8.60;2.40;;;14.60;75.40;;;;;;5007256;28;20656;-73
2024/04/04 11:57:35;;;;;;;5.00;1.70;;;14.70;75.50;;;;;;5008634;28;20461;-73
2024/04/04 12:00:01;;;;;;;5.13;1.63;;;14.70;75.40;;;;;;5004290;28;21068;-72
2024/04/04 12:02:26;;;;;;;3.20;1.43;;;14.90;74.90;;;;;;5010129;28;20233;-72
2024/04/04 12:04:52;;;;;;;5.90;1.70;;;14.90;74.20;;;;;;5007569;28;20317;-72
2024/04/04 12:07:18;;;;;;;6.03;1.57;;;14.90;74.00;;;;;;5008308;28;20196;-73
2024/04/04 12:09:43;;;;;;;7.10;1.60;;;15.00;73.90;;;;;;5011648;28;20203;-72
2024/04/04 12:12:09;;;;;;;4.50;1.67;;;15.30;72.40;;;;;;5012589;28;20211;-72
2024/04/04 12:14:34;;;;;;;6.03;1.40;;;15.60;71.30;;;;;;5008473;28;20191;-71
2024/04/04 12:17:01;;;;;;;4.90;2.13;;;15.80;70.70;;;;;;5008109;28;20298;-73
2024/04/04 12:19:27;;;;;;;6.73;2.30;;;16.00;69.80;;;;;;5013170;28;20220;-74
2024/04/04 12:21:54;;;;;;;3.30;1.37;;;16.00;68.80;;;;;;5016558;28;20480;-73
2024/04/04 12:24:20;;;;;;;7.20;1.50;;;15.80;69.10;;;;;;5017378;28;20424;-73
2024/04/04 12:26:47;;;;;;;4.43;1.70;;;15.80;69.10;;;;;;5007873;28;20434;-73
2024/04/04 12:29:16;;;;;;;5.20;1.43;;;15.70;69.50;;;;;;5005483;28;20455;-73
2024/04/04 12:31:42;;;;;;;3.20;1.30;;;15.70;69.90;;;;;;5003252;28;20463;-74
2024/04/04 12:34:08;;;;;;;2.90;1.50;;;15.70;69.10;;;;;;5010572;28;20932;-73
2024/04/04 12:36:33;;;;;;;8.03;1.87;;;15.60;69.80;;;;;;5009184;28;20575;-76
2024/04/04 12:39:00;;;;;;;8.23;1.40;;;15.60;69.80;;;;;;5008879;28;20258;-75
2024/04/04 12:41:26;;;;;;;4.20;1.30;;;15.70;69.20;;;;;;5003100;28;20230;-72